Time;durP1;ratioP1;P1;durP2;ratioP2;P2;SDS_P1;SDS_P2;PMS_P1;PMS_P2;Temp;Humidity;BMP_temperature;BMP_pressure;BME280_temperature;BME280_humidity;BME280_pressure;Samples;Min_cycle;Max_cycle;Signal;HPM_P1;HPM_P2
2022/03/29 00:01:26;;;;;;;195.88;63.65;;;;;;;;;;5027883;28;20064;-77
2022/03/29 00:03:52;;;;;;;195.40;62.08;;;;;;;;;;5028890;28;20029;-77
2022/03/29 00:06:18;;;;;;;197.40;61.75;;;;;;;;;;5027929;28;20029;-77
2022/03/29 00:08:44;;;;;;;199.90;64.28;;;;;;;;;;5028618;28;20022;-77
2022/03/29 00:11:12;;;;;;;206.88;61.25;;;;;;;;;;5028038;28;20033;-76
2022/03/29 00:13:38;;;;;;;214.23;60.92;;;;;;;;;;5025266;28;20034;-75
2022/03/29 00:16:04;;;;;;;211.95;64.78;;;;;;;;;;5026879;28;20071;-76
2022/03/29 00:18:30;;;;;;;217.80;62.72;;;;;;;;;;5028434;28;20704;-77
2022/03/29 00:20:57;;;;;;;232.63;62.05;;;;;;;;;;5027621;28;20025;-77
2022/03/29 00:23:23;;;;;;;218.85;61.90;;;;;;;;;;5028199;28;20041;-76
2022/03/29 00:25:49;;;;;;;249.93;64.95;;;;;;;;;;5026164;28;20439;-77
2022/03/29 00:28:15;;;;;;;212.15;63.00;;;;;;;;;;5025964;28;20037;-76
2022/03/29 00:30:41;;;;;;;221.55;63.92;;;;;;;;;;5025423;28;20044;-77
2022/03/29 00:33:08;;;;;;;249.85;59.58;;;;;;;;;;5008197;28;20037;-76
2022/03/29 00:35:35;;;;;;;193.27;59.85;;;;;;;;;;5028081;28;20103;-77
2022/03/29 00:38:01;;;;;;;227.18;61.17;;;;;;;;;;5020269;28;20021;-76
2022/03/29 00:40:27;;;;;;;269.17;61.50;;;;;;;;;;5021245;28;20037;-77
2022/03/29 00:42:53;;;;;;;291.60;64.07;;;;;;;;;;5025664;28;20106;-76
2022/03/29 00:45:19;;;;;;;243.15;65.28;;;;;;;;;;5026977;28;20025;-76
2022/03/29 00:47:45;;;;;;;238.52;64.68;;;;;;;;;;5023412;28;20073;-76
2022/03/29 00:50:11;;;;;;;261.35;61.85;;;;;;;;;;5025507;28;20065;-75
2022/03/29 00:52:39;;;;;;;281.23;66.78;;;;;;;;;;5028632;28;20033;-77
2022/03/29 00:55:06;;;;;;;248.13;66.85;;;;;;;;;;5027404;28;20036;-77
2022/03/29 00:57:34;;;;;;;247.40;63.28;;;;;;;;;;5025095;28;20130;-77
2022/03/29 01:00:02;;;;;;;240.30;65.65;;;;;;;;;;5028448;28;20023;-76
2022/03/29 01:02:28;;;;;;;240.38;65.15;;;;;;;;;;5028647;28;20124;-77
2022/03/29 01:04:54;;;;;;;279.42;65.55;;;;;;;;;;5028528;28;20549;-77
2022/03/29 01:07:20;;;;;;;271.73;68.95;;;;;;;;;;5028049;28;20038;-78
2022/03/29 01:09:46;;;;;;;288.92;66.82;;;;;;;;;;5029321;28;20135;-75
2022/03/29 01:12:12;;;;;;;265.17;66.70;;;;;;;;;;5028858;28;20104;-78
2022/03/29 01:14:40;;;;;;;287.77;64.03;;;;;;;;;;5030723;28;20025;-78
2022/03/29 01:19:52;;;;;;;278.83;62.65;;;;;;;;;;5027444;28;20040;-75
2022/03/29 01:22:19;;;;;;;337.98;66.95;;;;;;;;;;5011723;28;20029;-76
2022/03/29 01:24:46;;;;;;;405.35;68.03;;;;;;;;;;5029810;28;20108;-78
2022/03/29 01:27:13;;;;;;;300.58;65.40;;;;;;;;;;5026778;28;20037;-77
2022/03/29 01:29:39;;;;;;;266.08;64.05;;;;;;;;;;5029670;28;20052;-76
2022/03/29 01:32:08;;;;;;;372.13;67.03;;;;;;;;;;5029737;28;20018;-77
2022/03/29 01:34:40;;;;;;;362.00;68.38;;;;;;;;;;5030798;28;20075;-78
2022/03/29 01:37:06;;;;;;;358.23;68.85;;;;;;;;;;5032356;28;20024;-77
2022/03/29 01:39:33;;;;;;;365.77;70.10;;;;;;;;;;5030929;28;20053;-77
2022/03/29 01:41:59;;;;;;;261.92;68.72;;;;;;;;;;5031666;28;20033;-78
2022/03/29 01:44:25;;;;;;;313.33;66.53;;;;;;;;;;5032990;28;20056;-77
2022/03/29 01:46:52;;;;;;;270.77;68.55;;;;;;;;;;5030515;28;20096;-77
2022/03/29 01:49:18;;;;;;;295.10;65.43;;;;;;;;;;5030195;28;20056;-76
2022/03/29 01:51:45;;;;;;;348.95;65.45;;;;;;;;;;5030984;28;20094;-77
2022/03/29 01:54:11;;;;;;;308.58;66.47;;;;;;;;;;5030579;28;20073;-77
2022/03/29 01:56:37;;;;;;;311.45;69.53;;;;;;;;;;5031988;28;20452;-77
2022/03/29 01:59:08;;;;;;;340.60;67.43;;;;;;;;;;5029567;28;20079;-77
2022/03/29 02:01:45;;;;;;;441.65;70.03;;;;;;;;;;5028745;28;20088;-77
2022/03/29 02:04:12;;;;;;;352.15;70.18;;;;;;;;;;5028048;28;20105;-77
2022/03/29 02:06:38;;;;;;;406.27;70.65;;;;;;;;;;5031568;28;20029;-77
2022/03/29 02:09:06;;;;;;;410.85;74.20;;;;;;;;;;5028437;28;20033;-78
2022/03/29 02:11:32;;;;;;;553.35;75.50;;;;;;;;;;5029918;28;20025;-78
2022/03/29 02:13:58;;;;;;;385.30;71.22;;;;;;;;;;5029604;28;20116;-78
2022/03/29 02:16:25;;;;;;;462.35;73.18;;;;;;;;;;5030123;28;20456;-78
2022/03/29 02:18:51;;;;;;;357.98;71.65;;;;;;;;;;5027396;28;20099;-78
2022/03/29 02:21:17;;;;;;;444.08;70.35;;;;;;;;;;5032560;28;20099;-78
2022/03/29 02:23:43;;;;;;;444.60;71.70;;;;;;;;;;5029300;28;20033;-77
2022/03/29 02:26:10;;;;;;;380.02;70.63;;;;;;;;;;5029883;28;20060;-78
2022/03/29 02:28:36;;;;;;;289.95;68.15;;;;;;;;;;5029794;28;20037;-77
2022/03/29 02:31:02;;;;;;;322.50;70.03;;;;;;;;;;5029606;28;20044;-77
2022/03/29 02:33:28;;;;;;;355.27;69.93;;;;;;;;;;5029081;28;20539;-77
2022/03/29 02:35:54;;;;;;;454.88;75.35;;;;;;;;;;5008418;28;20029;-77
2022/03/29 02:38:20;;;;;;;342.05;65.88;;;;;;;;;;5011515;28;20037;-77
2022/03/29 02:40:47;;;;;;;442.38;73.90;;;;;;;;;;5025779;28;20038;-77
2022/03/29 02:43:13;;;;;;;298.33;69.68;;;;;;;;;;5029353;28;20093;-78
2022/03/29 02:45:39;;;;;;;392.70;69.43;;;;;;;;;;5029085;28;20061;-77
2022/03/29 02:48:05;;;;;;;401.20;73.07;;;;;;;;;;5030466;28;20034;-77
2022/03/29 02:50:31;;;;;;;326.27;69.43;;;;;;;;;;5030824;28;20321;-77
2022/03/29 02:52:59;;;;;;;408.98;73.35;;;;;;;;;;5031122;28;20026;-77
2022/03/29 02:55:29;;;;;;;351.25;72.57;;;;;;;;;;5028324;28;20026;-77
2022/03/29 02:57:56;;;;;;;264.65;67.03;;;;;;;;;;5030356;28;20873;-77
2022/03/29 03:00:23;;;;;;;286.30;66.82;;;;;;;;;;5026929;28;20394;-76
2022/03/29 03:02:50;;;;;;;344.17;66.95;;;;;;;;;;5028594;28;20033;-76
2022/03/29 03:05:16;;;;;;;349.48;69.90;;;;;;;;;;5028826;28;20037;-76
2022/03/29 03:07:43;;;;;;;315.70;71.03;;;;;;;;;;5027494;28;20474;-77
2022/03/29 03:10:10;;;;;;;278.00;67.55;;;;;;;;;;5028649;28;20573;-76
2022/03/29 03:12:36;;;;;;;293.92;70.18;;;;;;;;;;5028042;28;20101;-77
2022/03/29 03:15:03;;;;;;;304.42;72.28;;;;;;;;;;5028988;28;20495;-79
2022/03/29 03:17:29;;;;;;;285.83;70.07;;;;;;;;;;5030594;28;20056;-77
2022/03/29 03:19:55;;;;;;;305.27;70.60;;;;;;;;;;5030332;28;20025;-76
2022/03/29 03:22:21;;;;;;;285.02;70.72;;;;;;;;;;5024706;28;20041;-78
2022/03/29 03:24:47;;;;;;;271.13;69.47;;;;;;;;;;5028166;28;20036;-78
2022/03/29 03:27:13;;;;;;;273.33;68.95;;;;;;;;;;5030075;28;20033;-78
2022/03/29 03:29:40;;;;;;;236.27;65.15;;;;;;;;;;5029596;28;20029;-78
2022/03/29 03:32:06;;;;;;;277.40;67.85;;;;;;;;;;5027963;28;20018;-78
2022/03/29 03:34:32;;;;;;;295.55;67.35;;;;;;;;;;5026025;28;20553;-79
2022/03/29 03:36:58;;;;;;;261.25;65.32;;;;;;;;;;5024587;28;20038;-79
2022/03/29 03:39:25;;;;;;;233.95;61.45;;;;;;;;;;5023856;28;20034;-78
2022/03/29 03:41:51;;;;;;;238.57;64.07;;;;;;;;;;5027219;28;20039;-77
2022/03/29 03:44:17;;;;;;;256.38;65.82;;;;;;;;;;5025740;28;20033;-77
2022/03/29 03:46:43;;;;;;;237.05;64.93;;;;;;;;;;5027304;28;20391;-76
2022/03/29 03:49:10;;;;;;;240.98;64.07;;;;;;;;;;5009311;28;20048;-77
2022/03/29 03:51:36;;;;;;;231.02;63.67;;;;;;;;;;5027882;28;20052;-78
2022/03/29 03:54:02;;;;;;;264.63;62.65;;;;;;;;;;5025844;28;20423;-78
2022/03/29 03:56:28;;;;;;;248.75;61.33;;;;;;;;;;5026954;28;20045;-78
2022/03/29 03:58:54;;;;;;;233.52;62.22;;;;;;;;;;5024907;28;20215;-78
2022/03/29 04:01:20;;;;;;;300.70;61.92;;;;;;;;;;5022729;28;20526;-76
2022/03/29 04:03:46;;;;;;;245.23;59.60;;;;;;;;;;5026171;28;20025;-77
2022/03/29 04:06:12;;;;;;;264.08;59.65;;;;;;;;;;5027810;28;20455;-78
2022/03/29 04:08:38;;;;;;;328.75;65.30;;;;;;;;;;5027564;28;20116;-78
2022/03/29 04:11:06;;;;;;;232.20;59.85;;;;;;;;;;5027137;28;20025;-77
2022/03/29 04:13:33;;;;;;;247.40;63.95;;;;;;;;;;5025395;28;20038;-78
2022/03/29 04:15:59;;;;;;;237.63;60.08;;;;;;;;;;5026146;28;20552;-77
2022/03/29 04:18:25;;;;;;;211.95;57.65;;;;;;;;;;5024905;28;20029;-78
2022/03/29 04:20:53;;;;;;;255.88;64.45;;;;;;;;;;5023823;28;20026;-79
2022/03/29 04:23:19;;;;;;;244.98;57.03;;;;;;;;;;5027910;28;20033;-77
2022/03/29 04:25:45;;;;;;;225.73;58.33;;;;;;;;;;5025693;28;20087;-79
2022/03/29 04:28:11;;;;;;;223.20;59.35;;;;;;;;;;5026519;28;20521;-78
2022/03/29 04:30:38;;;;;;;223.23;60.95;;;;;;;;;;5027101;28;20033;-77
2022/03/29 04:33:04;;;;;;;249.65;61.45;;;;;;;;;;5030113;28;20033;-78
2022/03/29 04:35:30;;;;;;;254.57;63.47;;;;;;;;;;5029591;28;20124;-78
2022/03/29 04:37:56;;;;;;;258.52;62.92;;;;;;;;;;5029240;28;20022;-78
2022/03/29 04:40:23;;;;;;;317.23;66.05;;;;;;;;;;5029946;28;20670;-78
2022/03/29 04:42:49;;;;;;;275.10;66.00;;;;;;;;;;5033316;28;20025;-77
2022/03/29 04:45:16;;;;;;;276.77;60.72;;;;;;;;;;5031388;28;20026;-78
2022/03/29 04:47:43;;;;;;;246.70;62.55;;;;;;;;;;5029603;28;20090;-78
2022/03/29 04:50:10;;;;;;;268.67;64.00;;;;;;;;;;5032133;28;20033;-78
2022/03/29 04:52:37;;;;;;;239.07;63.00;;;;;;;;;;5029797;28;20030;-78
2022/03/29 04:55:04;;;;;;;261.58;64.30;;;;;;;;;;5032040;28;20076;-78
2022/03/29 04:57:31;;;;;;;227.88;61.03;;;;;;;;;;5032037;28;20509;-78
2022/03/29 04:59:57;;;;;;;226.48;62.08;;;;;;;;;;5029507;28;20026;-78
2022/03/29 05:02:23;;;;;;;225.75;60.58;;;;;;;;;;5031379;28;20036;-78
2022/03/29 05:04:49;;;;;;;253.48;64.78;;;;;;;;;;5031166;28;20029;-75
2022/03/29 05:07:16;;;;;;;245.70;63.45;;;;;;;;;;5032381;28;20096;-76
2022/03/29 05:09:42;;;;;;;233.80;62.78;;;;;;;;;;5029732;28;20041;-76
2022/03/29 05:12:08;;;;;;;231.30;62.85;;;;;;;;;;5028969;28;20119;-77
2022/03/29 05:14:34;;;;;;;241.55;66.32;;;;;;;;;;5024302;28;20463;-76
2022/03/29 05:17:01;;;;;;;226.98;61.45;;;;;;;;;;5029363;28;20056;-76
2022/03/29 05:19:27;;;;;;;221.57;62.13;;;;;;;;;;5027644;28;20038;-77
2022/03/29 05:21:53;;;;;;;237.25;64.18;;;;;;;;;;5030326;28;20029;-76
2022/03/29 05:24:19;;;;;;;186.13;57.47;;;;;;;;;;5028528;28;20172;-76
2022/03/29 05:26:45;;;;;;;156.00;54.97;;;;;;;;;;5031023;28;20084;-76
2022/03/29 05:29:12;;;;;;;169.75;54.80;;;;;;;;;;5016032;28;20088;-76
2022/03/29 05:31:38;;;;;;;165.20;55.45;;;;;;;;;;5014341;28;20021;-77
2022/03/29 05:34:05;;;;;;;166.73;54.92;;;;;;;;;;5032201;28;20087;-76
2022/03/29 05:36:32;;;;;;;131.30;49.88;;;;;;;;;;5031095;28;20078;-75
2022/03/29 05:38:58;;;;;;;140.85;50.65;;;;;;;;;;5031373;28;20033;-77
2022/03/29 05:41:24;;;;;;;128.57;48.72;;;;;;;;;;5032038;28;20091;-77
2022/03/29 05:43:50;;;;;;;127.07;47.50;;;;;;;;;;5029452;28;20029;-77
2022/03/29 05:49:02;;;;;;;123.10;47.92;;;;;;;;;;5030098;28;20560;-75
2022/03/29 05:51:29;;;;;;;102.97;43.60;;;;;;;;;;5030676;28;20025;-75
2022/03/29 05:53:56;;;;;;;107.22;42.33;;;;;;;;;;5027799;28;20037;-76
2022/03/29 05:56:22;;;;;;;107.47;43.75;;;;;;;;;;5028870;28;20033;-75
2022/03/29 05:58:50;;;;;;;98.20;42.33;;;;;;;;;;5028666;28;20045;-76
2022/03/29 06:01:16;;;;;;;93.53;39.75;;;;;;;;;;5028115;28;20030;-75
2022/03/29 06:03:42;;;;;;;96.35;41.10;;;;;;;;;;5025635;28;20034;-74
2022/03/29 06:06:08;;;;;;;86.72;39.95;;;;;;;;;;5023717;28;20100;-75
2022/03/29 06:08:35;;;;;;;84.78;38.50;;;;;;;;;;5026718;28;20029;-77
2022/03/29 06:11:02;;;;;;;82.00;38.67;;;;;;;;;;5025258;28;20151;-76
2022/03/29 06:13:28;;;;;;;84.97;40.10;;;;;;;;;;5028339;28;20124;-76
2022/03/29 06:15:55;;;;;;;91.25;40.05;;;;;;;;;;5026771;28;20037;-76
2022/03/29 06:18:21;;;;;;;83.78;40.63;;;;;;;;;;5026969;28;20113;-76
2022/03/29 06:20:48;;;;;;;82.15;40.28;;;;;;;;;;5027342;28;20026;-75
2022/03/29 06:23:14;;;;;;;93.38;41.55;;;;;;;;;;5027973;28;20029;-76
2022/03/29 06:25:40;;;;;;;86.03;41.20;;;;;;;;;;5029153;28;20044;-75
2022/03/29 06:28:06;;;;;;;87.45;40.58;;;;;;;;;;5028037;28;20045;-77
2022/03/29 06:30:32;;;;;;;82.32;39.80;;;;;;;;;;5027192;28;20140;-77
2022/03/29 06:32:59;;;;;;;77.80;38.85;;;;;;;;;;5026864;28;20106;-75
2022/03/29 06:35:27;;;;;;;81.88;40.17;;;;;;;;;;5028784;28;20483;-77
2022/03/29 06:37:55;;;;;;;78.53;40.13;;;;;;;;;;5028095;28;20108;-76
2022/03/29 06:40:21;;;;;;;70.65;36.97;;;;;;;;;;5026320;28;20028;-75
2022/03/29 06:42:48;;;;;;;80.38;38.63;;;;;;;;;;5025133;28;20029;-73
2022/03/29 06:45:14;;;;;;;79.15;38.17;;;;;;;;;;5024442;28;20060;-75
2022/03/29 06:47:41;;;;;;;78.70;37.33;;;;;;;;;;4990494;28;1122937;-77
2022/03/29 06:50:11;;;;;;;76.28;38.20;;;;;;;;;;5026494;28;20048;-76
2022/03/29 06:52:41;;;;;;;78.05;39.13;;;;;;;;;;5025868;28;20044;-75
2022/03/29 06:55:08;;;;;;;78.43;38.00;;;;;;;;;;5027690;28;20021;-74
2022/03/29 06:57:34;;;;;;;90.82;38.97;;;;;;;;;;5028605;28;20055;-76
2022/03/29 07:00:01;;;;;;;74.22;38.25;;;;;;;;;;5026610;28;20075;-75
2022/03/29 07:02:28;;;;;;;73.32;37.63;;;;;;;;;;5023624;28;20044;-73
2022/03/29 07:04:55;;;;;;;69.20;36.35;;;;;;;;;;5028031;28;20108;-74
2022/03/29 07:07:21;;;;;;;76.50;37.42;;;;;;;;;;5027912;28;20021;-76
2022/03/29 07:12:34;;;;;;;75.25;35.90;;;;;;;;;;5027486;28;20047;-74
2022/03/29 07:15:00;;;;;;;75.40;37.58;;;;;;;;;;5027637;28;20103;-73
2022/03/29 07:17:27;;;;;;;72.72;36.30;;;;;;;;;;5024688;28;20078;-71
2022/03/29 07:19:53;;;;;;;70.07;36.58;;;;;;;;;;5028522;28;20017;-70
2022/03/29 07:22:19;;;;;;;73.65;35.80;;;;;;;;;;5024135;28;20049;-69
2022/03/29 07:24:45;;;;;;;67.95;36.45;;;;;;;;;;5025208;28;20099;-70
2022/03/29 07:27:11;;;;;;;74.35;37.92;;;;;;;;;;5026094;28;20033;-69
2022/03/29 07:29:39;;;;;;;74.13;38.17;;;;;;;;;;5025477;28;20018;-69
2022/03/29 07:32:05;;;;;;;65.88;34.88;;;;;;;;;;5023638;28;20124;-68
2022/03/29 07:34:35;;;;;;;62.50;33.05;;;;;;;;;;5026671;28;20033;-70
2022/03/29 07:37:02;;;;;;;63.22;34.70;;;;;;;;;;5027010;28;20047;-69
2022/03/29 07:39:28;;;;;;;64.65;34.55;;;;;;;;;;5028086;28;20033;-69
2022/03/29 07:41:55;;;;;;;63.42;33.13;;;;;;;;;;5028767;28;20155;-71
2022/03/29 07:44:21;;;;;;;62.08;31.45;;;;;;;;;;5028703;28;20063;-69
2022/03/29 07:46:47;;;;;;;62.08;32.50;;;;;;;;;;5026919;28;20136;-70
2022/03/29 07:49:13;;;;;;;65.28;32.80;;;;;;;;;;5027691;28;20041;-68
2022/03/29 07:51:41;;;;;;;58.42;32.20;;;;;;;;;;5028036;28;20498;-69
2022/03/29 07:54:07;;;;;;;57.75;30.40;;;;;;;;;;5028516;28;20053;-69
2022/03/29 07:56:34;;;;;;;62.38;30.85;;;;;;;;;;5027570;28;20099;-69
2022/03/29 07:59:00;;;;;;;63.63;31.70;;;;;;;;;;5027105;28;20514;-69
2022/03/29 08:01:27;;;;;;;53.15;29.55;;;;;;;;;;5023899;28;20026;-69
2022/03/29 08:03:54;;;;;;;61.17;30.95;;;;;;;;;;5027752;28;20025;-69
2022/03/29 08:06:21;;;;;;;57.50;30.95;;;;;;;;;;5027226;28;20099;-70
2022/03/29 08:08:47;;;;;;;58.97;30.80;;;;;;;;;;5027140;28;20037;-69
2022/03/29 08:11:13;;;;;;;65.05;32.35;;;;;;;;;;5025952;28;20455;-67
2022/03/29 08:13:39;;;;;;;65.80;32.75;;;;;;;;;;5025468;28;20036;-68
2022/03/29 08:16:06;;;;;;;61.42;31.58;;;;;;;;;;5026503;28;20658;-70
2022/03/29 08:18:35;;;;;;;61.80;30.58;;;;;;;;;;5027590;28;20112;-69
2022/03/29 08:21:01;;;;;;;62.03;33.13;;;;;;;;;;5026553;28;20029;-70
2022/03/29 08:23:28;;;;;;;60.45;31.75;;;;;;;;;;5027837;28;20021;-69
2022/03/29 08:25:55;;;;;;;58.90;31.67;;;;;;;;;;5027461;28;20171;-70
2022/03/29 08:28:21;;;;;;;56.55;30.65;;;;;;;;;;5027876;28;20067;-70
2022/03/29 08:30:47;;;;;;;56.60;30.48;;;;;;;;;;5027865;28;20037;-69
2022/03/29 08:33:14;;;;;;;58.03;29.65;;;;;;;;;;5027961;28;20026;-70
2022/03/29 08:35:43;;;;;;;57.30;29.33;;;;;;;;;;5027832;28;20037;-70
2022/03/29 08:38:09;;;;;;;55.90;29.75;;;;;;;;;;5023284;28;20057;-69
2022/03/29 08:40:35;;;;;;;55.35;29.40;;;;;;;;;;5026553;28;20034;-69
2022/03/29 08:43:01;;;;;;;55.15;28.35;;;;;;;;;;5026024;28;20030;-68
2022/03/29 08:45:29;;;;;;;55.47;29.23;;;;;;;;;;5027628;28;20026;-69
2022/03/29 08:47:57;;;;;;;52.38;28.00;;;;;;;;;;5027058;28;20056;-68
2022/03/29 08:50:25;;;;;;;66.40;32.55;;;;;;;;;;5027623;28;20114;-70
2022/03/29 08:52:54;;;;;;;56.13;28.77;;;;;;;;;;5023741;28;20033;-69
2022/03/29 08:55:20;;;;;;;60.22;30.75;;;;;;;;;;5027726;28;20076;-70
2022/03/29 08:57:49;;;;;;;59.05;29.70;;;;;;;;;;5027846;28;20088;-69
2022/03/29 09:00:16;;;;;;;60.53;30.15;;;;;;;;;;5027820;28;20029;-69
2022/03/29 09:02:42;;;;;;;55.90;30.00;;;;;;;;;;5016352;28;20021;-69
2022/03/29 09:05:12;;;;;;;59.78;30.95;;;;;;;;;;5026537;28;20103;-70
2022/03/29 09:07:51;;;;;;;49.95;28.60;;;;;;;;;;5026563;28;20052;-69
2022/03/29 09:10:17;;;;;;;56.15;29.92;;;;;;;;;;5028379;28;20087;-70
2022/03/29 09:12:43;;;;;;;57.28;29.25;;;;;;;;;;5027629;28;20067;-70
2022/03/29 09:15:09;;;;;;;65.63;31.17;;;;;;;;;;5028162;28;20037;-71
2022/03/29 09:17:43;;;;;;;57.38;28.98;;;;;;;;;;5027364;28;20419;-69
2022/03/29 09:20:12;;;;;;;49.13;28.10;;;;;;;;;;5032873;28;20029;-68
2022/03/29 09:22:47;;;;;;;52.10;29.60;;;;;;;;;;5031343;28;20104;-69
2022/03/29 09:25:15;;;;;;;51.05;28.50;;;;;;;;;;5031418;28;20036;-69
2022/03/29 09:27:56;;;;;;;51.80;28.02;;;;;;;;;;5031051;28;20506;-71
2022/03/29 09:30:22;;;;;;;;;;;;;;;;;;5031778;28;20025;-68
2022/03/29 09:32:54;;;;;;;54.40;30.23;;;;;;;;;;5030072;28;19924;-69
2022/03/29 09:35:21;;;;;;;55.20;28.55;;;;;;;;;;5031883;28;20036;-70
2022/03/29 09:37:47;;;;;;;52.85;29.33;;;;;;;;;;5031019;28;20055;-69
2022/03/29 09:40:14;;;;;;;52.45;29.33;;;;;;;;;;5031798;28;20025;-69
2022/03/29 09:42:40;;;;;;;60.50;31.00;;;;;;;;;;5028494;28;20044;-71
2022/03/29 09:45:08;;;;;;;61.42;31.75;;;;;;;;;;5031222;28;20506;-69
2022/03/29 09:47:35;;;;;;;62.53;30.80;;;;;;;;;;5030309;28;20503;-68
2022/03/29 09:50:09;;;;;;;55.28;30.88;;;;;;;;;;5030910;28;20101;-68
2022/03/29 09:52:37;;;;;;;54.03;29.02;;;;;;;;;;5029282;28;20029;-69
2022/03/29 09:55:15;;;;;;;54.30;29.73;;;;;;;;;;5029716;28;20029;-69
2022/03/29 09:57:52;;;;;;;56.45;31.42;;;;;;;;;;5029485;28;20096;-70
2022/03/29 10:00:39;;;;;;;57.50;30.17;;;;;;;;;;5030987;28;20487;-70
2022/03/29 10:03:09;;;;;;;57.42;31.67;;;;;;;;;;5028595;28;20102;-70
2022/03/29 10:05:36;;;;;;;56.63;29.65;;;;;;;;;;5030811;28;20029;-69
2022/03/29 10:10:48;;;;;;;52.10;29.38;;;;;;;;;;5030284;28;20088;-69
2022/03/29 10:13:16;;;;;;;46.47;27.17;;;;;;;;;;5028300;28;20499;-69
2022/03/29 10:15:42;;;;;;;54.10;30.25;;;;;;;;;;5029477;28;20037;-68
2022/03/29 10:18:08;;;;;;;47.53;27.33;;;;;;;;;;5027576;28;20107;-69
2022/03/29 10:20:35;;;;;;;48.95;29.17;;;;;;;;;;5028250;28;20087;-70
2022/03/29 10:23:01;;;;;;;48.80;28.80;;;;;;;;;;5027875;28;20112;-69
2022/03/29 10:25:28;;;;;;;53.65;29.23;;;;;;;;;;5030303;28;20029;-71
2022/03/29 10:27:58;;;;;;;53.35;29.83;;;;;;;;;;5029876;28;20120;-70
2022/03/29 10:30:31;;;;;;;50.33;29.45;;;;;;;;;;5028762;28;20086;-70
2022/03/29 10:33:14;;;;;;;50.20;28.30;;;;;;;;;;5030293;28;20033;-69
2022/03/29 10:35:59;;;;;;;50.25;29.98;;;;;;;;;;5022845;28;20037;-69
2022/03/29 10:38:53;;;;;;;51.65;28.73;;;;;;;;;;5024064;28;20026;-69
2022/03/29 10:41:28;;;;;;;52.65;29.25;;;;;;;;;;5027108;28;20482;-70
2022/03/29 10:44:04;;;;;;;55.70;28.73;;;;;;;;;;5028418;28;20044;-69
2022/03/29 10:46:39;;;;;;;53.47;29.73;;;;;;;;;;5029249;28;20124;-68
2022/03/29 10:49:22;;;;;;;52.08;28.55;;;;;;;;;;5027238;28;20021;-68
2022/03/29 10:51:55;;;;;;;45.25;27.67;;;;;;;;;;5023920;28;20503;-69
2022/03/29 10:54:36;;;;;;;51.80;28.70;;;;;;;;;;5026676;28;20077;-70
2022/03/29 10:57:10;;;;;;;49.10;28.40;;;;;;;;;;5028229;28;20100;-69
2022/03/29 10:59:37;;;;;;;50.92;28.10;;;;;;;;;;5024906;28;20124;-69
2022/03/29 11:02:18;;;;;;;52.40;29.35;;;;;;;;;;5027654;28;20483;-69
2022/03/29 11:05:06;;;;;;;56.58;29.83;;;;;;;;;;5025971;28;20044;-70
2022/03/29 11:07:34;;;;;;;50.58;27.95;;;;;;;;;;5025738;28;20030;-69
2022/03/29 11:10:12;;;;;;;49.28;28.33;;;;;;;;;;5027572;28;20030;-69
2022/03/29 11:12:38;;;;;;;55.30;29.73;;;;;;;;;;5026880;28;20048;-70
2022/03/29 11:15:23;;;;;;;52.20;29.13;;;;;;;;;;5026498;28;20029;-70
2022/03/29 11:17:49;;;;;;;50.55;28.92;;;;;;;;;;5029139;28;20037;-70
2022/03/29 11:20:29;;;;;;;50.25;27.67;;;;;;;;;;5026433;28;20112;-69
2022/03/29 11:22:57;;;;;;;52.20;28.02;;;;;;;;;;5027729;28;20356;-69
2022/03/29 11:25:23;;;;;;;49.17;28.40;;;;;;;;;;5028288;28;20053;-69
2022/03/29 11:27:50;;;;;;;44.28;28.23;;;;;;;;;;5025597;28;20387;-70
2022/03/29 11:30:16;;;;;;;48.42;27.75;;;;;;;;;;5027834;28;20038;-69
2022/03/29 11:32:45;;;;;;;49.28;28.10;;;;;;;;;;5028435;28;20038;-69
2022/03/29 11:35:19;;;;;;;49.85;29.02;;;;;;;;;;5026105;28;20037;-69
2022/03/29 11:37:49;;;;;;;47.45;28.10;;;;;;;;;;5028357;28;20129;-70
2022/03/29 11:40:17;;;;;;;53.25;29.05;;;;;;;;;;5026236;28;20079;-69
2022/03/29 11:42:54;;;;;;;45.47;28.38;;;;;;;;;;5026355;28;20394;-69
2022/03/29 11:45:23;;;;;;;42.20;27.80;;;;;;;;;;5026141;28;20454;-69
2022/03/29 11:48:11;;;;;;;46.08;27.50;;;;;;;;;;5024826;28;20105;-69
2022/03/29 11:50:37;;;;;;;47.22;26.83;;;;;;;;;;5028011;28;20041;-70
2022/03/29 11:53:03;;;;;;;44.55;27.45;;;;;;;;;;5027493;28;20424;-70
2022/03/29 11:55:29;;;;;;;44.60;26.85;;;;;;;;;;5028454;28;20049;-69
2022/03/29 11:57:56;;;;;;;45.85;26.25;;;;;;;;;;5026086;28;20521;-69
2022/03/29 12:00:26;;;;;;;44.15;26.60;;;;;;;;;;5024188;28;20068;-69
2022/03/29 12:02:52;;;;;;;43.72;26.63;;;;;;;;;;5029036;28;20079;-68
2022/03/29 12:05:22;;;;;;;45.53;25.70;;;;;;;;;;5027181;28;20403;-68
2022/03/29 12:07:48;;;;;;;44.05;24.45;;;;;;;;;;5025661;28;20462;-68
2022/03/29 12:10:27;;;;;;;38.85;24.77;;;;;;;;;;5025083;28;20057;-69
2022/03/29 12:12:53;;;;;;;39.95;24.50;;;;;;;;;;5023913;28;20502;-69
2022/03/29 12:15:20;;;;;;;41.92;25.92;;;;;;;;;;5007657;28;20482;-69
2022/03/29 12:18:40;;;;;;;41.25;24.30;;;;;;;;;;5022582;28;20063;-68
2022/03/29 12:20:40;;;;;;;43.28;24.38;;;;;;;;;;5024895;28;20040;-68
2022/03/29 12:23:25;;;;;;;37.42;24.67;;;;;;;;;;5026721;28;20475;-69
2022/03/29 12:25:51;;;;;;;37.30;22.77;;;;;;;;;;5026774;28;20056;-69
2022/03/29 12:28:19;;;;;;;33.67;22.35;;;;;;;;;;5026621;28;20018;-68
2022/03/29 12:30:45;;;;;;;35.15;23.23;;;;;;;;;;5025002;28;20039;-69
2022/03/29 12:33:11;;;;;;;35.72;22.33;;;;;;;;;;5027539;28;20028;-70
2022/03/29 12:35:37;;;;;;;33.20;21.60;;;;;;;;;;5026956;28;20029;-69
2022/03/29 12:38:07;;;;;;;36.38;23.80;;;;;;;;;;5025491;28;20148;-69
2022/03/29 12:40:33;;;;;;;31.05;21.95;;;;;;;;;;5009466;28;20033;-69
2022/03/29 12:43:03;;;;;;;30.25;20.77;;;;;;;;;;5026091;28;20076;-69
2022/03/29 12:45:29;;;;;;;32.88;22.02;;;;;;;;;;5025409;28;20049;-70
2022/03/29 12:47:56;;;;;;;39.08;21.88;;;;;;;;;;5025098;28;20080;-69
2022/03/29 12:50:22;;;;;;;33.83;23.63;;;;;;;;;;5027004;28;20478;-69
2022/03/29 12:52:48;;;;;;;33.10;22.63;;;;;;;;;;5027555;28;20103;-69
2022/03/29 12:55:18;;;;;;;34.70;20.92;;;;;;;;;;5028596;28;20033;-68
2022/03/29 12:57:45;;;;;;;32.85;21.92;;;;;;;;;;5027192;28;20073;-68
2022/03/29 13:00:14;;;;;;;33.35;22.77;;;;;;;;;;5022813;28;20029;-68
2022/03/29 13:02:46;;;;;;;34.35;23.63;;;;;;;;;;5031865;28;20095;-69
2022/03/29 13:05:14;;;;;;;30.92;20.77;;;;;;;;;;5029406;28;20031;-69
2022/03/29 13:07:50;;;;;;;32.47;20.10;;;;;;;;;;5031645;28;20044;-69
2022/03/29 13:10:26;;;;;;;32.28;19.95;;;;;;;;;;5027837;28;20191;-69
2022/03/29 13:13:08;;;;;;;32.10;20.83;;;;;;;;;;5029832;28;20029;-69
2022/03/29 13:15:37;;;;;;;31.60;19.13;;;;;;;;;;5027175;28;20056;-69
2022/03/29 13:18:04;;;;;;;29.83;20.70;;;;;;;;;;5029827;28;20079;-68
2022/03/29 13:20:35;;;;;;;37.42;21.25;;;;;;;;;;5024731;28;20178;-70
2022/03/29 13:23:01;;;;;;;38.65;23.00;;;;;;;;;;5025874;28;20558;-70
2022/03/29 13:25:37;;;;;;;34.85;23.73;;;;;;;;;;5028342;28;20432;-69
2022/03/29 13:28:04;;;;;;;48.63;20.15;;;;;;;;;;5026699;28;20025;-69
2022/03/29 13:30:30;;;;;;;36.92;20.77;;;;;;;;;;5022343;28;20445;-68
2022/03/29 13:32:57;;;;;;;34.28;21.73;;;;;;;;;;5024975;28;20065;-68
2022/03/29 13:35:23;;;;;;;28.45;20.48;;;;;;;;;;5026848;28;20033;-68
2022/03/29 13:37:49;;;;;;;34.95;20.48;;;;;;;;;;5022849;28;20045;-70
2022/03/29 13:40:15;;;;;;;52.35;24.65;;;;;;;;;;5023661;28;20040;-70
2022/03/29 13:42:42;;;;;;;34.60;24.50;;;;;;;;;;5025196;28;20064;-68
2022/03/29 13:45:10;;;;;;;39.40;25.42;;;;;;;;;;5023826;28;20041;-69
2022/03/29 13:47:36;;;;;;;35.72;25.40;;;;;;;;;;5024807;28;20525;-68
2022/03/29 13:50:03;;;;;;;40.67;24.27;;;;;;;;;;5027100;28;20033;-69
2022/03/29 13:52:29;;;;;;;36.30;24.02;;;;;;;;;;5028302;28;20152;-68
2022/03/29 13:54:55;;;;;;;36.20;24.02;;;;;;;;;;5028728;28;20303;-68
2022/03/29 13:57:21;;;;;;;38.30;24.75;;;;;;;;;;5026331;28;20034;-68
2022/03/29 13:59:47;;;;;;;34.83;24.42;;;;;;;;;;5029069;28;20521;-68
2022/03/29 14:02:14;;;;;;;37.13;24.67;;;;;;;;;;5025136;28;20033;-68
2022/03/29 14:04:40;;;;;;;34.85;23.77;;;;;;;;;;5023001;28;20120;-69
2022/03/29 14:07:06;;;;;;;36.63;24.38;;;;;;;;;;5027921;28;20129;-70
2022/03/29 14:09:32;;;;;;;33.22;24.30;;;;;;;;;;5027335;28;20467;-69
2022/03/29 14:11:59;;;;;;;34.33;23.58;;;;;;;;;;5027489;28;20513;-69
2022/03/29 14:14:25;;;;;;;30.45;22.95;;;;;;;;;;5030275;28;20045;-69
2022/03/29 14:16:51;;;;;;;35.45;22.73;;;;;;;;;;5025711;28;20098;-69
2022/03/29 14:19:18;;;;;;;32.67;22.52;;;;;;;;;;5028708;28;20034;-69
2022/03/29 14:21:44;;;;;;;29.83;20.65;;;;;;;;;;5030126;28;20487;-69
2022/03/29 14:24:10;;;;;;;33.78;22.67;;;;;;;;;;5030728;28;20076;-69
2022/03/29 14:26:36;;;;;;;32.35;23.08;;;;;;;;;;5030950;28;20029;-68